Time;durP1;ratioP1;P1;durP2;ratioP2;P2;SDS_P1;SDS_P2;PMS_P1;PMS_P2;Temp;Humidity;BMP_temperature;BMP_pressure;BME280_temperature;BME280_humidity;BME280_pressure;Samples;Min_cycle;Max_cycle;Signal;HPM_P1;HPM_P2
2021/01/02 00:01:32;;;;;;;37.58;21.92;;;;;;;7.49;62.58;101140.81;4914082;28;124307;-71
2021/01/02 00:04:09;;;;;;;38.65;22.67;;;;;;;7.51;62.55;101138.97;4917257;28;123812;-72
2021/01/02 00:07:06;;;;;;;40.45;23.50;;;;;;;7.50;62.14;101142.53;4923775;28;114363;-72
2021/01/02 00:09:34;;;;;;;35.47;22.25;;;;;;;7.49;62.30;101143.44;4917990;28;114036;-72
2021/01/02 00:12:23;;;;;;;39.22;22.20;;;;;;;7.48;62.32;101138.19;4916118;28;123862;-71
2021/01/02 00:15:03;;;;;;;39.20;21.98;;;;;;;7.49;62.65;101146.06;4922109;28;122863;-71
2021/01/02 00:18:01;;;;;;;40.55;22.98;;;;;;;7.49;62.63;101150.50;4899873;28;113105;-72
2021/01/02 00:20:27;;;;;;;38.90;22.77;;;;;;;7.50;62.51;101147.81;4913323;28;113317;-72
2021/01/02 00:23:00;;;;;;;40.65;21.90;;;;;;;7.50;62.48;101152.22;4926064;28;124296;-70
2021/01/02 00:25:33;;;;;;;37.20;22.60;;;;;;;7.49;62.53;101146.06;4914314;28;124397;-71
2021/01/02 00:28:22;;;;;;;39.92;22.42;;;;;;;7.48;62.50;101147.00;4915238;28;114141;-71
2021/01/02 00:30:54;;;;;;;36.83;22.33;;;;;;;7.49;62.42;101151.34;4919840;28;114930;-71
2021/01/02 00:33:51;;;;;;;36.72;22.00;;;;;;;7.48;62.26;101144.38;4915517;28;124114;-72
2021/01/02 00:36:48;;;;;;;36.80;21.77;;;;;;;7.47;62.19;101139.97;4912720;28;122740;-71
2021/01/02 00:39:27;;;;;;;39.38;21.95;;;;;;;7.50;62.51;101142.53;4924817;28;114250;-71
2021/01/02 00:41:54;;;;;;;37.50;22.30;;;;;;;7.51;62.54;101149.53;4918500;28;114088;-71
2021/01/02 00:44:21;;;;;;;35.30;21.70;;;;;;;7.51;62.37;101146.88;4898242;28;123350;-72
2021/01/02 00:46:48;;;;;;;35.15;22.08;;;;;;;7.51;62.22;101144.25;4923267;28;123882;-71
2021/01/02 00:49:16;;;;;;;34.72;21.10;;;;;;;7.52;62.47;101145.16;4920481;28;113652;-73
2021/01/02 00:52:01;;;;;;;40.80;22.05;;;;;;;7.49;62.22;101145.22;4914869;28;113741;-72
2021/01/02 00:54:42;;;;;;;33.30;20.77;;;;;;;7.49;62.20;101146.06;4920481;28;124980;-73
2021/01/02 00:57:20;;;;;;;34.25;20.63;;;;;;;7.50;62.15;101147.81;4902839;28;123228;-72
2021/01/02 01:00:02;;;;;;;33.95;21.50;;;;;;;7.48;62.15;101149.63;4913033;28;113866;-71
2021/01/02 01:03:03;;;;;;;32.35;21.40;;;;;;;7.45;62.34;101144.44;4899485;28;113218;-71
2021/01/02 01:05:36;;;;;;;29.48;20.00;;;;;;;7.44;62.27;101148.00;4910884;28;123833;-71
2021/01/02 01:08:05;;;;;;;31.52;20.25;;;;;;;7.45;62.51;101147.06;4913666;28;123319;-71
2021/01/02 01:10:36;;;;;;;37.20;21.30;;;;;;;7.44;62.16;101142.72;4918905;28;114024;-71
2021/01/02 01:13:07;;;;;;;38.70;22.00;;;;;;;7.45;62.51;101144.44;4917904;28;114529;-72
2021/01/02 01:15:34;;;;;;;34.20;21.35;;;;;;;7.44;62.02;101148.00;4916842;28;124068;-71
2021/01/02 01:18:31;;;;;;;33.33;21.20;;;;;;;7.43;62.45;101151.53;4916390;28;123468;-71
2021/01/02 01:21:01;;;;;;;32.58;20.45;;;;;;;7.44;62.38;101153.25;4915667;28;115058;-72
2021/01/02 01:23:30;;;;;;;35.22;20.63;;;;;;;7.45;62.60;101159.38;4897342;28;114491;-71
2021/01/02 01:26:35;;;;;;;35.35;20.48;;;;;;;7.45;62.04;101157.59;4924589;28;123976;-72
2021/01/02 01:29:04;;;;;;;35.85;21.13;;;;;;;7.46;62.42;101162.00;4914958;28;124458;-72
2021/01/02 01:31:43;;;;;;;35.03;21.25;;;;;;;7.45;62.42;101170.78;4913844;28;113086;-71
2021/01/02 01:34:19;;;;;;;34.05;20.77;;;;;;;7.48;62.19;101170.72;4925339;28;114400;-71
2021/01/02 01:36:47;;;;;;;33.17;20.77;;;;;;;7.47;61.94;101171.59;4918522;28;124397;-71
2021/01/02 01:39:14;;;;;;;33.25;20.90;;;;;;;7.45;61.92;101168.16;4911347;28;123577;-71
2021/01/02 01:41:44;;;;;;;30.13;20.45;;;;;;;7.44;61.94;101169.06;4917343;28;114053;-72
2021/01/02 01:44:51;;;;;;;31.38;20.98;;;;;;;7.44;62.30;101170.81;4922627;28;112280;-72
2021/01/02 01:47:19;;;;;;;33.72;20.80;;;;;;;7.44;61.85;101174.34;4914058;28;123940;-71
2021/01/02 01:49:57;;;;;;;33.30;21.13;;;;;;;7.44;62.21;101184.88;4911344;28;122802;-71
2021/01/02 01:52:37;;;;;;;33.30;21.77;;;;;;;7.43;62.22;101188.41;4915569;28;114998;-72
2021/01/02 01:55:09;;;;;;;34.63;20.83;;;;;;;7.43;62.17;101190.19;4913236;28;113409;-72
2021/01/02 01:57:40;;;;;;;35.67;21.10;;;;;;;7.42;62.01;101186.66;4916399;28;124175;-72
2021/01/02 02:00:16;;;;;;;33.78;20.58;;;;;;;7.41;62.14;101187.59;4919767;28;122970;-71
2021/01/02 02:02:45;;;;;;;33.50;20.85;;;;;;;7.42;61.87;101197.22;4917297;28;114331;-71
2021/01/02 02:05:14;;;;;;;35.70;20.02;;;;;;;7.40;61.82;101199.03;4921783;28;114062;-72
2021/01/02 02:08:01;;;;;;;30.02;19.65;;;;;;;7.40;61.92;101193.75;4912252;28;123860;-72
2021/01/02 02:10:43;;;;;;;33.80;20.42;;;;;;;7.41;62.06;101195.50;4921274;28;123462;-71
2021/01/02 02:13:32;;;;;;;33.05;20.83;;;;;;;7.41;61.86;101198.13;4910301;28;114672;-71
2021/01/02 02:15:59;;;;;;;31.38;20.38;;;;;;;7.43;61.75;101198.09;4915511;28;115544;-72
2021/01/02 02:18:28;;;;;;;29.17;19.25;;;;;;;7.41;61.91;101200.75;4913135;28;123835;-71
2021/01/02 02:21:00;;;;;;;31.10;20.00;;;;;;;7.40;62.06;101204.28;4914591;28;123991;-71
2021/01/02 02:23:58;;;;;;;32.95;19.83;;;;;;;7.38;61.77;101200.84;4897266;28;113031;-72
2021/01/02 02:26:30;;;;;;;34.00;21.42;;;;;;;7.37;61.88;101204.38;4921100;28;114071;-72
2021/01/02 02:29:07;;;;;;;32.00;20.17;;;;;;;7.35;62.12;101193.88;4914699;28;124053;-72
2021/01/02 02:31:40;;;;;;;33.42;19.77;;;;;;;7.34;62.07;101193.91;4912124;28;123352;-72
2021/01/02 02:34:07;;;;;;;33.67;20.60;;;;;;;7.33;61.70;101198.34;4909939;28;114820;-71
2021/01/02 02:36:34;;;;;;;37.72;21.10;;;;;;;7.32;61.82;101195.72;4914573;28;113206;-71
2021/01/02 02:39:06;;;;;;;32.25;20.92;;;;;;;7.32;61.76;101201.84;4910894;28;123034;-72
2021/01/02 02:41:39;;;;;;;33.78;21.15;;;;;;;7.33;61.66;101192.22;4924434;28;123056;-71
2021/01/02 02:44:10;;;;;;;31.85;19.80;;;;;;;7.35;62.04;101195.66;4915777;28;114327;-72
2021/01/02 02:46:44;;;;;;;32.10;20.92;;;;;;;7.36;61.53;101194.75;4917410;28;113899;-71
2021/01/02 02:49:15;;;;;;;36.85;20.30;;;;;;;7.36;61.65;101192.09;4913034;28;124586;-71
2021/01/02 02:51:47;;;;;;;33.67;20.75;;;;;;;7.37;61.80;101194.72;4921041;28;123830;-72
2021/01/02 02:54:14;;;;;;;34.38;21.17;;;;;;;7.38;61.68;101195.56;4918735;28;114389;-71
2021/01/02 02:56:41;;;;;;;31.58;20.33;;;;;;;7.37;61.55;101188.59;4913534;28;113571;-71
2021/01/02 02:59:11;;;;;;;34.35;20.73;;;;;;;7.36;61.94;101184.19;4925919;28;124498;-71
2021/01/02 03:01:37;;;;;;;33.05;20.27;;;;;;;7.37;61.95;101188.59;4912486;28;124206;-72
2021/01/02 03:04:04;;;;;;;35.63;21.35;;;;;;;7.38;61.89;101187.66;4911923;28;116156;-71
2021/01/02 03:06:32;;;;;;;31.88;20.55;;;;;;;7.39;61.74;101186.75;4919122;28;115265;-72
2021/01/02 03:08:59;;;;;;;35.08;21.40;;;;;;;7.40;61.91;101193.75;4925673;28;123808;-71
2021/01/02 03:11:25;;;;;;;31.83;20.60;;;;;;;7.43;61.50;101196.31;4923379;28;124397;-72
2021/01/02 03:13:53;;;;;;;34.17;21.20;;;;;;;7.44;61.70;101195.44;4925677;28;115143;-72
2021/01/02 03:16:21;;;;;;;34.90;20.50;;;;;;;7.46;61.72;101209.41;4922507;28;114024;-72
2021/01/02 03:18:48;;;;;;;31.70;20.30;;;;;;;7.45;61.78;101206.81;4915279;28;122572;-71
2021/01/02 03:21:14;;;;;;;35.83;21.17;;;;;;;7.44;61.66;101205.97;4918222;28;123540;-71
2021/01/02 03:23:43;;;;;;;34.50;21.17;;;;;;;7.43;61.75;101212.13;4922960;28;114144;-72
2021/01/02 03:26:10;;;;;;;31.63;20.50;;;;;;;7.43;61.32;101204.22;4918094;28;114879;-71
2021/01/02 03:28:36;;;;;;;32.45;20.80;;;;;;;7.46;61.67;101209.41;4913687;28;123140;-71
2021/01/02 03:31:03;;;;;;;33.65;21.27;;;;;;;7.45;61.77;101207.69;4920809;28;124553;-71
2021/01/02 03:33:30;;;;;;;30.75;20.63;;;;;;;7.44;61.56;101205.97;4922050;28;114766;-72
2021/01/02 03:36:01;;;;;;;29.95;19.95;;;;;;;7.44;61.61;101211.25;4923869;28;114372;-71
2021/01/02 03:38:32;;;;;;;31.77;20.42;;;;;;;7.44;61.58;101215.63;4920942;28;123561;-71
2021/01/02 03:40:59;;;;;;;31.95;20.30;;;;;;;7.42;61.41;101202.47;4915733;28;124178;-72
2021/01/02 03:43:28;;;;;;;31.27;20.02;;;;;;;7.41;61.39;101201.63;4917057;28;114176;-72
2021/01/02 03:45:55;;;;;;;33.33;21.15;;;;;;;7.40;61.58;101204.28;4923055;28;114037;-71
2021/01/02 03:48:23;;;;;;;33.42;19.98;;;;;;;7.38;61.49;101206.09;4899093;28;123144;-71
2021/01/02 03:50:49;;;;;;;34.33;21.88;;;;;;;7.38;61.39;101206.09;4899930;28;124030;-71
2021/01/02 03:53:16;;;;;;;33.72;19.60;;;;;;;7.38;61.44;101200.84;4916531;28;115504;-72
2021/01/02 03:55:43;;;;;;;35.65;21.40;;;;;;;7.37;61.21;101199.13;4919917;28;114930;-71
2021/01/02 03:58:09;;;;;;;33.70;20.98;;;;;;;7.35;61.63;101200.94;4917591;28;124159;-71
2021/01/02 04:00:36;;;;;;;32.10;20.92;;;;;;;7.32;61.19;101195.72;4917894;28;123412;-71
2021/01/02 04:03:03;;;;;;;33.28;21.42;;;;;;;7.29;61.53;101195.78;4918412;28;114584;-72
2021/01/02 04:05:29;;;;;;;36.00;21.20;;;;;;;7.28;61.66;101194.09;4917685;28;114037;-71
2021/01/02 04:07:56;;;;;;;36.22;21.33;;;;;;;7.26;61.20;101201.16;4911884;28;123763;-71
2021/01/02 04:10:22;;;;;;;30.77;21.10;;;;;;;7.26;62.09;101203.81;4919023;28;123833;-71
2021/01/02 04:12:49;;;;;;;37.95;21.20;;;;;;;7.27;61.31;101202.88;4919304;28;114317;-72
2021/01/02 04:15:16;;;;;;;36.83;20.95;;;;;;;7.30;61.49;101208.09;4915302;28;114252;-71
2021/01/02 04:17:43;;;;;;;33.50;21.10;;;;;;;7.31;61.39;101207.16;4918197;28;124619;-71
2021/01/02 04:20:11;;;;;;;36.00;22.27;;;;;;;7.31;61.52;101209.78;4918052;28;125602;-72
2021/01/02 04:22:38;;;;;;;34.15;21.70;;;;;;;7.31;61.37;101209.78;4912993;28;114733;-72
2021/01/02 04:25:05;;;;;;;39.67;21.42;;;;;;;7.30;61.33;101202.81;4919011;28;113918;-72
2021/01/02 04:27:32;;;;;;;36.17;22.10;;;;;;;7.29;61.70;101199.31;4922287;28;124103;-72
2021/01/02 04:29:58;;;;;;;37.33;21.73;;;;;;;7.30;61.58;101197.53;4912347;28;122871;-72
2021/01/02 04:32:25;;;;;;;38.88;23.27;;;;;;;7.31;61.14;101199.25;4918588;28;114175;-71
2021/01/02 04:34:51;;;;;;;34.15;21.95;;;;;;;7.30;61.61;101197.53;4917287;28;112766;-71
2021/01/02 04:37:18;;;;;;;42.13;23.13;;;;;;;7.28;61.42;101194.94;4920730;28;124099;-71
2021/01/02 04:39:44;;;;;;;38.38;22.98;;;;;;;7.27;61.38;101197.59;4916124;28;123361;-71
2021/01/02 04:42:11;;;;;;;40.83;22.85;;;;;;;7.29;61.73;101201.06;4913034;28;113780;-71
2021/01/02 04:44:38;;;;;;;37.17;22.15;;;;;;;7.29;61.29;101195.78;4911813;28;114850;-71
2021/01/02 04:47:06;;;;;;;37.03;23.02;;;;;;;7.30;61.45;101198.41;4923258;28;123793;-71
2021/01/02 04:49:33;;;;;;;36.03;22.33;;;;;;;7.32;61.46;101201.00;4923245;28;123702;-72
2021/01/02 04:52:01;;;;;;;37.85;22.38;;;;;;;7.33;61.56;101197.47;4916025;28;114476;-70
2021/01/02 04:54:28;;;;;;;38.47;23.30;;;;;;;7.34;61.53;101204.47;4912346;28;114284;-72
2021/01/02 04:56:54;;;;;;;39.13;24.17;;;;;;;7.34;61.13;101209.72;4916194;28;122540;-71
2021/01/02 04:59:26;;;;;;;41.03;24.02;;;;;;;7.31;61.50;101210.69;4912230;28;123152;-72
2021/01/02 05:01:54;;;;;;;41.85;25.17;;;;;;;7.30;61.27;101208.09;4918921;28;114228;-71
2021/01/02 05:04:21;;;;;;;46.03;24.88;;;;;;;7.27;61.25;101208.16;4912079;28;113496;-71
2021/01/02 05:06:48;;;;;;;44.97;25.45;;;;;;;7.27;61.41;101209.03;4919746;28;123952;-72
2021/01/02 05:09:15;;;;;;;44.97;25.67;;;;;;;7.28;61.54;101210.75;4918638;28;122737;-71
2021/01/02 05:11:41;;;;;;;46.95;26.52;;;;;;;7.30;61.29;101208.09;4919330;28;114791;-71
2021/01/02 05:14:08;;;;;;;47.58;26.00;;;;;;;7.31;61.42;101204.53;4914745;28;113568;-71
2021/01/02 05:19:05;;;;;;;49.83;26.88;;;;;;;7.28;61.50;101204.63;4918596;28;124866;-71
2021/01/02 05:21:35;;;;;;;42.75;26.10;;;;;;;7.28;61.24;101204.63;4895941;28;113637;-72
2021/01/02 05:24:09;;;;;;;42.45;26.02;;;;;;;7.27;61.61;101202.88;4918747;28;114733;-71
2021/01/02 05:26:38;;;;;;;44.28;25.63;;;;;;;7.27;61.51;101202.88;4916498;28;123921;-72
2021/01/02 05:29:11;;;;;;;46.42;27.02;;;;;;;7.28;61.49;101209.91;4923730;28;123605;-72
2021/01/02 05:31:44;;;;;;;46.75;26.10;;;;;;;7.28;61.31;101209.91;4912202;28;115624;-71
2021/01/02 05:34:12;;;;;;;41.47;24.45;;;;;;;7.29;61.53;101211.59;4918291;28;114709;-71
2021/01/02 05:36:39;;;;;;;47.13;25.63;;;;;;;7.29;61.89;101217.75;4916134;28;123721;-72
2021/01/02 05:39:08;;;;;;;45.70;25.73;;;;;;;7.31;61.74;101220.34;4917108;28;124517;-72
2021/01/02 05:41:50;;;;;;;44.38;25.63;;;;;;;7.30;61.30;101219.47;4902513;28;113297;-72
2021/01/02 05:44:17;;;;;;;45.90;26.25;;;;;;;7.31;61.61;101225.59;4912080;28;113114;-72
2021/01/02 05:46:45;;;;;;;45.60;25.73;;;;;;;7.27;61.49;101223.97;4920398;28;123851;-71
2021/01/02 05:49:47;;;;;;;46.30;26.70;;;;;;;7.26;61.78;101227.50;4917685;28;124014;-71
2021/01/02 05:52:16;;;;;;;47.00;27.23;;;;;;;7.26;61.74;101228.38;4914914;28;114343;-71
2021/01/02 05:54:45;;;;;;;44.72;26.27;;;;;;;7.26;61.38;101227.50;4913515;28;113022;-71
2021/01/02 05:57:13;;;;;;;47.50;27.40;;;;;;;7.25;61.43;101225.75;4916032;28;124418;-72
2021/01/02 05:59:41;;;;;;;47.65;27.15;;;;;;;7.24;61.30;101224.91;4914186;28;123570;-71
2021/01/02 06:02:29;;;;;;;47.45;26.95;;;;;;;7.22;61.36;101227.56;4912441;28;113148;-71
2021/01/02 06:04:56;;;;;;;48.25;27.17;;;;;;;7.24;61.83;101229.31;4896293;28;113046;-71
2021/01/02 06:07:29;;;;;;;49.65;27.85;;;;;;;7.24;61.76;101229.31;4922372;28;124859;-72
2021/01/02 06:09:57;;;;;;;45.10;27.15;;;;;;;7.23;61.64;101233.69;4917555;28;123794;-72
2021/01/02 06:12:28;;;;;;;48.53;27.83;;;;;;;7.21;61.56;101236.41;4918774;28;114484;-71
2021/01/02 06:14:58;;;;;;;45.70;27.02;;;;;;;7.22;61.55;101232.84;4913497;28;113996;-71
2021/01/02 06:17:33;;;;;;;46.05;28.33;;;;;;;7.21;61.84;101241.66;4920677;28;123885;-71
2021/01/02 06:20:05;;;;;;;49.92;28.70;;;;;;;7.19;61.67;101238.19;4914636;28;123339;-71
2021/01/02 06:22:32;;;;;;;48.22;27.73;;;;;;;7.18;61.73;101247.00;4912434;28;115294;-72
2021/01/02 06:25:00;;;;;;;50.55;28.60;;;;;;;7.16;61.74;101243.53;4915251;28;114964;-72
2021/01/02 06:27:27;;;;;;;50.92;29.45;;;;;;;7.15;61.53;101246.22;4923010;28;124305;-71
2021/01/02 06:29:58;;;;;;;49.95;29.88;;;;;;;7.13;61.66;101251.50;4916726;28;123728;-71
2021/01/02 06:32:27;;;;;;;53.08;30.33;;;;;;;7.12;61.59;101257.69;4921874;28;114209;-71
2021/01/02 06:35:09;;;;;;;58.55;30.88;;;;;;;7.09;61.89;101257.75;4917175;28;114918;-72
2021/01/02 06:37:45;;;;;;;52.08;29.60;;;;;;;7.09;61.91;101256.91;4917792;28;123321;-72
2021/01/02 06:40:25;;;;;;;54.72;31.33;;;;;;;7.05;61.87;101261.38;4915766;28;123669;-71
2021/01/02 06:43:00;;;;;;;53.67;30.70;;;;;;;7.02;61.52;101256.16;4902643;28;113646;-71
2021/01/02 06:45:42;;;;;;;55.47;31.08;;;;;;;7.01;61.68;101259.72;4919265;28;114337;-71
2021/01/02 06:48:24;;;;;;;57.58;30.67;;;;;;;7.02;61.77;101261.44;4923765;28;124221;-71
2021/01/02 06:50:52;;;;;;;56.58;31.02;;;;;;;7.04;61.58;101269.31;4924482;28;122735;-71
2021/01/02 06:53:26;;;;;;;58.45;31.20;;;;;;;7.06;61.83;101263.09;4921533;28;114491;-72
2021/01/02 06:56:05;;;;;;;60.72;32.17;;;;;;;7.06;61.60;101257.81;4923545;28;115346;-71
2021/01/02 06:58:44;;;;;;;60.58;31.63;;;;;;;7.06;61.53;101257.81;4921900;28;124653;-70
2021/01/02 07:01:17;;;;;;;58.90;31.95;;;;;;;7.07;61.78;101254.28;4914080;28;123703;-71
2021/01/02 07:03:46;;;;;;;60.47;32.33;;;;;;;7.04;61.71;101254.34;4905922;28;113152;-71
2021/01/02 07:06:22;;;;;;;59.05;32.33;;;;;;;7.02;61.80;101256.16;4926021;28;114041;-71
2021/01/02 07:09:14;;;;;;;59.30;31.75;;;;;;;7.00;61.65;101258.81;4916821;28;123067;-71
2021/01/02 07:11:45;;;;;;;56.42;30.50;;;;;;;7.00;61.74;101257.97;4917819;28;124653;-72
2021/01/02 07:14:13;;;;;;;53.85;31.42;;;;;;;6.99;61.63;101261.53;4918571;28;115341;-71
2021/01/02 07:16:45;;;;;;;55.42;32.03;;;;;;;6.98;61.84;101265.03;4916056;28;113918;-71
2021/01/02 07:19:27;;;;;;;57.70;31.23;;;;;;;6.98;62.04;101265.91;4921853;28;124010;-72
2021/01/02 07:22:12;;;;;;;56.08;31.42;;;;;;;7.00;61.92;101269.34;4915349;28;123694;-71
2021/01/02 07:24:43;;;;;;;60.10;31.42;;;;;;;7.00;62.02;101273.78;4919653;28;114924;-71
2021/01/02 07:27:10;;;;;;;58.05;31.33;;;;;;;7.02;61.87;101271.97;4912254;28;114151;-71
2021/01/02 07:29:42;;;;;;;59.38;32.10;;;;;;;7.03;61.87;101273.72;4916001;28;124942;-71
2021/01/02 07:32:11;;;;;;;58.53;31.40;;;;;;;7.05;62.09;101281.59;4921327;28;124045;-71
2021/01/02 07:34:45;;;;;;;61.08;32.13;;;;;;;7.05;61.82;101277.16;4923726;28;114501;-71
2021/01/02 07:37:17;;;;;;;58.63;31.10;;;;;;;7.05;61.84;101271.91;4913420;28;112484;-72
2021/01/02 07:39:55;;;;;;;59.67;31.88;;;;;;;7.06;61.68;101278.88;4912629;28;123219;-71
2021/01/02 07:42:24;;;;;;;57.28;31.35;;;;;;;7.08;61.94;101292.88;4910741;28;124208;-71
2021/01/02 07:45:02;;;;;;;59.10;31.70;;;;;;;7.07;61.90;101296.44;4917459;28;113531;-72
2021/01/02 07:47:29;;;;;;;60.80;32.10;;;;;;;7.08;61.53;101300.78;4917550;28;114176;-71
2021/01/02 07:50:08;;;;;;;60.13;31.42;;;;;;;7.10;61.90;101298.13;4911101;28;123770;-72
2021/01/02 07:52:36;;;;;;;61.13;32.80;;;;;;;7.11;61.73;101300.72;4913868;28;124558;-72
2021/01/02 07:55:07;;;;;;;59.53;31.70;;;;;;;7.10;61.84;101298.13;4916508;28;113330;-71
2021/01/02 07:57:34;;;;;;;63.53;32.03;;;;;;;7.08;61.77;101311.31;4914548;28;113686;-72
2021/01/02 08:00:04;;;;;;;59.50;32.58;;;;;;;7.07;61.61;101312.25;4900774;28;124009;-71
2021/01/02 08:02:40;;;;;;;58.85;30.55;;;;;;;7.07;61.63;101311.38;4915524;28;123683;-72
2021/01/02 08:05:13;;;;;;;60.38;32.42;;;;;;;7.04;61.53;101317.56;4906067;28;114586;-71
2021/01/02 08:07:41;;;;;;;61.55;31.30;;;;;;;7.04;61.56;101317.56;4922552;28;115000;-71
2021/01/02 08:10:09;;;;;;;62.10;31.63;;;;;;;7.04;61.94;101317.56;4919240;28;124455;-72
2021/01/02 08:12:37;;;;;;;58.70;32.30;;;;;;;7.05;61.80;101314.03;4914506;28;123503;-72
2021/01/02 08:15:05;;;;;;;62.08;32.60;;;;;;;7.06;61.79;101315.75;4900213;28;113179;-72
2021/01/02 08:17:39;;;;;;;63.60;32.78;;;;;;;7.06;61.57;101315.75;4919970;28;114232;-71
2021/01/02 08:20:07;;;;;;;61.08;31.10;;;;;;;7.07;61.64;101322.78;4915295;28;124082;-72
2021/01/02 08:22:37;;;;;;;52.85;29.83;;;;;;;7.06;61.86;101321.03;4900278;28;122975;-71
2021/01/02 08:25:15;;;;;;;62.10;31.13;;;;;;;7.05;61.56;101324.56;4921863;28;114274;-74
2021/01/02 08:27:44;;;;;;;54.95;30.17;;;;;;;7.06;62.08;101326.28;4907963;28;114106;-71
2021/01/02 08:30:14;;;;;;;68.63;31.95;;;;;;;7.08;61.66;101327.13;4908664;28;124078;-72
2021/01/02 08:32:44;;;;;;;55.13;30.10;;;;;;;7.10;61.64;101327.09;4919995;28;124487;-72
2021/01/02 08:35:16;;;;;;;61.13;29.38;;;;;;;7.08;61.98;101324.50;4909510;28;113170;-71
2021/01/02 08:37:44;;;;;;;55.95;29.95;;;;;;;7.09;61.60;101330.66;4919372;28;113995;-71
2021/01/02 08:40:13;;;;;;;62.10;30.90;;;;;;;7.07;61.72;101333.31;4918970;28;124691;-72
2021/01/02 08:42:42;;;;;;;54.88;28.65;;;;;;;7.03;61.66;101326.38;4918041;28;124128;-72
2021/01/02 08:45:11;;;;;;;63.72;31.65;;;;;;;7.04;61.73;101329.88;4917359;28;114425;-72
2021/01/02 08:47:39;;;;;;;57.60;29.35;;;;;;;7.04;61.78;101332.50;4911994;28;114463;-71
2021/01/02 08:50:13;;;;;;;57.38;29.73;;;;;;;7.01;62.20;101339.59;4923024;28;123802;-71
2021/01/02 08:52:42;;;;;;;55.92;30.17;;;;;;;7.02;61.96;101341.28;4923531;28;123748;-71
2021/01/02 08:55:14;;;;;;;58.70;29.92;;;;;;;7.02;62.25;101340.44;4924295;28;115063;-71
2021/01/02 08:57:48;;;;;;;52.58;28.48;;;;;;;7.05;61.88;101340.38;4923305;28;115429;-71
2021/01/02 09:00:17;;;;;;;55.40;29.00;;;;;;;7.05;61.92;101345.66;4922915;28;124418;-72
2021/01/02 09:03:08;;;;;;;53.47;29.02;;;;;;;7.07;62.26;101343.84;4901624;28;123527;-70
2021/01/02 09:05:40;;;;;;;55.92;29.00;;;;;;;7.07;61.91;101349.09;4918544;28;114039;-70
2021/01/02 09:08:16;;;;;;;55.30;29.13;;;;;;;7.06;62.11;101347.38;4924060;28;114742;-71
2021/01/02 09:10:45;;;;;;;57.97;28.33;;;;;;;7.05;62.05;101348.28;4902721;28;123194;-71
2021/01/02 09:13:20;;;;;;;58.70;29.67;;;;;;;7.05;62.26;101356.19;4910939;28;123729;-71
2021/01/02 09:15:47;;;;;;;55.33;28.05;;;;;;;7.06;62.15;101357.91;4919109;28;114015;-71
2021/01/02 09:18:35;;;;;;;54.47;28.88;;;;;;;7.06;62.08;101367.56;4926561;28;114655;-71
2021/01/02 09:21:05;;;;;;;59.92;28.60;;;;;;;7.07;62.22;101369.31;4919682;28;123067;-73
2021/01/02 09:23:35;;;;;;;56.78;28.48;;;;;;;7.09;62.13;101364.88;4921818;28;123876;-71
2021/01/02 09:26:16;;;;;;;56.67;29.08;;;;;;;7.11;62.33;101366.56;4917362;28;114314;-72
2021/01/02 09:28:44;;;;;;;55.35;28.20;;;;;;;7.15;62.28;101362.09;4898486;28;114261;-71
2021/01/02 09:31:10;;;;;;;60.42;29.70;;;;;;;7.15;62.05;101373.50;4932977;23;123735;-76
2021/01/02 09:33:37;;;;;;;66.90;30.08;;;;;;;7.13;62.20;101364.78;4954735;28;124100;-75
2021/01/02 09:36:04;;;;;;;66.60;30.63;;;;;;;7.13;62.28;101375.31;4937325;28;112934;-75
2021/01/02 09:38:31;;;;;;;67.38;32.28;;;;;;;7.12;62.17;101378.84;4936221;28;114488;-75
2021/01/02 09:40:58;;;;;;;75.28;31.17;;;;;;;7.14;62.28;101373.53;4936183;28;125191;-75
2021/01/02 09:43:25;;;;;;;72.43;31.67;;;;;;;7.15;62.12;101378.75;4930418;28;123235;-75
2021/01/02 09:45:52;;;;;;;70.13;32.58;;;;;;;7.14;62.10;101377.06;4920525;28;114465;-76
2021/01/02 09:48:19;;;;;;;69.50;32.42;;;;;;;7.13;62.34;101380.56;4953463;28;115360;-76
2021/01/02 09:50:46;;;;;;;70.55;32.33;;;;;;;7.13;62.47;101383.22;4935007;28;122984;-76
2021/01/02 09:53:14;;;;;;;71.75;34.03;;;;;;;7.14;62.33;101387.59;4934815;28;122876;-76
2021/01/02 09:55:40;;;;;;;76.18;33.42;;;;;;;7.17;62.61;101387.50;4948036;28;114275;-75
2021/01/02 09:58:09;;;;;;;68.55;31.98;;;;;;;7.19;62.42;101390.09;4933750;28;114311;-77
2021/01/02 10:00:37;;;;;;;75.13;33.17;;;;;;;7.20;62.41;101384.81;4935699;28;124763;-76
2021/01/02 10:03:07;;;;;;;77.72;34.97;;;;;;;7.22;62.52;101396.19;4953448;28;124148;-76
2021/01/02 10:05:42;;;;;;;65.53;31.92;;;;;;;7.25;62.29;101389.09;4936309;28;114073;-76
2021/01/02 10:08:09;;;;;;;73.38;32.42;;;;;;;7.24;62.53;101388.25;4937410;28;113921;-76
2021/01/02 10:10:36;;;;;;;71.70;33.30;;;;;;;7.24;62.55;101390.03;4952263;28;124221;-76
2021/01/02 10:13:03;;;;;;;80.82;34.05;;;;;;;7.25;62.50;101389.09;4935288;28;123803;-77
2021/01/02 10:15:30;;;;;;;76.22;34.15;;;;;;;7.27;62.46;101382.03;4936906;28;113672;-77
2021/01/02 10:17:57;;;;;;;73.88;33.55;;;;;;;7.31;62.25;101388.97;4936639;28;113834;-76
2021/01/02 10:20:24;;;;;;;81.63;34.83;;;;;;;7.36;62.67;101392.34;4955499;28;123309;-76
2021/01/02 10:22:51;;;;;;;80.90;34.15;;;;;;;7.38;62.61;101386.19;4958005;28;123070;-76
2021/01/02 10:25:19;;;;;;;76.22;33.97;;;;;;;7.38;62.68;101385.28;4940410;28;113893;-76
2021/01/02 10:27:45;;;;;;;78.95;34.45;;;;;;;7.39;62.41;101387.03;4958446;28;113404;-77
2021/01/02 10:30:13;;;;;;;79.18;34.00;;;;;;;7.42;62.60;101386.94;4955931;28;124405;-77
2021/01/02 10:32:40;;;;;;;79.13;33.85;;;;;;;7.43;62.55;101383.41;4939603;28;123106;-75
2021/01/02 10:35:09;;;;;;;82.50;35.67;;;;;;;7.45;62.86;101381.63;4938454;28;114541;-77
2021/01/02 10:37:36;;;;;;;76.35;34.30;;;;;;;7.48;62.77;101381.56;4958071;28;115183;-76
2021/01/02 10:40:05;;;;;;;74.40;34.08;;;;;;;7.50;62.65;101379.75;4938802;28;123685;-76
2021/01/02 10:42:33;;;;;;;80.35;35.15;;;;;;;7.48;62.42;101380.66;4938108;28;123425;-76
2021/01/02 10:45:01;;;;;;;82.78;34.80;;;;;;;7.46;62.83;101372.81;4940527;28;113954;-75
2021/01/02 10:47:29;;;;;;;79.93;34.75;;;;;;;7.45;62.60;101376.34;4957467;28;114527;-77
2021/01/02 10:49:57;;;;;;;75.85;35.00;;;;;;;7.46;62.76;101378.09;4939547;28;124058;-76
2021/01/02 10:52:26;;;;;;;85.55;36.88;;;;;;;7.46;62.59;101362.28;4924845;28;121495;-76
2021/01/02 10:54:55;;;;;;;83.68;36.22;;;;;;;7.46;62.67;101362.28;4958498;28;115191;-76
2021/01/02 10:57:27;;;;;;;80.47;35.13;;;;;;;7.47;62.58;101358.72;4924131;28;113059;-76
2021/01/02 10:59:55;;;;;;;79.07;33.35;;;;;;;7.48;62.61;101355.19;4957414;28;123667;-76
2021/01/02 11:02:23;;;;;;;80.13;34.45;;;;;;;7.49;62.56;101359.53;4940740;28;123325;-76
2021/01/02 11:04:51;;;;;;;73.07;33.03;;;;;;;7.52;62.39;101361.25;4958158;28;114300;-76
2021/01/02 11:07:23;;;;;;;74.50;33.83;;;;;;;7.53;62.70;101355.94;4941536;28;113012;-76
2021/01/02 11:09:52;;;;;;;72.82;33.13;;;;;;;7.57;63.02;101348.81;4937882;28;123086;-75
2021/01/02 11:12:20;;;;;;;73.63;33.40;;;;;;;7.59;62.59;101358.44;4923693;28;122779;-77
2021/01/02 11:14:48;;;;;;;76.30;33.20;;;;;;;7.62;62.40;101351.34;4939826;28;113906;-76
2021/01/02 11:17:14;;;;;;;75.65;34.90;;;;;;;7.64;62.58;101350.41;4957862;28;114233;-76
2021/01/02 11:19:44;;;;;;;72.45;34.58;;;;;;;7.67;62.69;101344.22;4940569;28;123334;-76
2021/01/02 11:22:11;;;;;;;82.15;35.58;;;;;;;7.70;62.61;101344.13;4948369;28;121722;-77
2021/01/02 11:24:40;;;;;;;76.55;34.42;;;;;;;7.71;62.89;101340.59;4946463;28;113964;-77
2021/01/02 11:27:07;;;;;;;75.38;34.75;;;;;;;7.74;62.72;101341.38;4930050;28;114295;-76
2021/01/02 11:29:34;;;;;;;76.97;35.72;;;;;;;7.78;63.11;101343.03;4930785;28;123156;-76
2021/01/02 11:32:07;;;;;;;72.95;33.10;;;;;;;7.80;62.58;101340.34;4943617;28;124007;-77